• Join FlightAware (Why Join?)
  • Login
  • US Flag 
11:15AM EDT


 

Airport Tracker/Info


-or-


 

Live Flight TrackerFlight Track Log ✈ DAL695 ✈ 13-Jun-2013 ✈ KJFK - KMCO

Flight Track Log - Related Links

Times and Time Zones

All times are in EDT time to prevent confusion due to time zone crossing. See the DAL695 flight status page for this flight to view local times or setup timezone preferences in your user account.

Time Position Orientation Groundspeed Altitude Reporting Facility
EDT Latitude Longitude Course Direction KTS MPH feet Rate Location/Type
11:53AM 40.6147 -73.7947 270° West 174 200 1,200  Level New York Center
11:53AM 40.5833 -73.8333 223° Southwest 208 239 2,100 2,400 Climbing New York TRACON
11:54AM 40.5333 -73.8833 217° Southwest 235 270 5,200 2,760 Climbing New York TRACON
11:55AM 40.4667 -73.9167 201° Southwest 249 287 7,700 2,640 Climbing New York TRACON
11:56AM 40.3351 -74.2527 232° Southwest  Level FlightAware Approximate
11:56AM 40.4167 -73.9500 207° Southwest 253 291 10,500  Level New York TRACON
11:57AM 40.2581 -74.3752 217° Southwest  Level FlightAware Approximate
11:58AM 40.2000 -74.5052 270° West  Level FlightAware Approximate
11:58AM 40.3500 -74.0333 224° Southwest 295 339 11,600  Level New York TRACON
11:58AM 40.3467 -74.0689 263° West 309 356 11,800 1,740 Climbing New York Center
11:59AM 40.3083 -74.1786 245° Southwest 364 419 13,900 2,400 Climbing New York Center
12:00PM 40.2736 -74.2883 248° West 365 420 16,700 1,500 Climbing New York Center
12:01PM 40.2369 -74.4008 247° West 359 413 17,000 60 Climbing New York Center
12:02PM 40.2022 -74.5158 248° West 349 402 16,900 -60 Descending New York Center
12:03PM 40.1942 -74.6350 265° West 338 389 16,900 960 Level New York Center
12:04PM 40.1836 -74.7592 264° West 333 383 18,900 1,860 Climbing New York Center
12:05PM 40.1753 -74.8811 265° West 340 391 20,600 1,320 Climbing New York Center
12:06PM 40.1644 -75.0136 264° West 353 406 21,600 780 Climbing New York Center
12:07PM 40.1511 -75.1486 263° West 366 421 22,200 1,260 Climbing New York Center
12:08PM 40.1353 -75.2886 262° West 385 443 24,200 1,560 Climbing New York Center
12:09PM 40.0789 -75.4044 238° Southwest 378 435 25,300 840 Climbing New York Center
12:10PM 40.0139 -75.5194 234° Southwest 388 447 25,900 600 Climbing New York Center
12:11PM 39.9422 -75.6364 231° Southwest 407 468 26,600 1,140 Climbing New York Center
12:13PM 39.7944 -75.8725 231° Southwest 442 509 29,400 1,200 Climbing Washington Center
12:14PM 39.7214 -75.9881 231° Southwest 435 501 30,400 1,020 Climbing Washington Center
12:15PM 39.6481 -76.1061 231° Southwest 435 501 31,500 1,140 Climbing Washington Center
12:16PM 39.5767 -76.2214 231° Southwest 425 489 32,700 840 Climbing Washington Center
12:17PM 39.5031 -76.3283 228° Southwest 415 478 33,300 600 Climbing Washington Center
12:18PM 39.4336 -76.4406 231° Southwest 410 472 34,000 300 Climbing Washington Center
12:19PM 39.3658 -76.5714 236° Southwest 410 472 34,000  Level Washington Center
12:20PM 39.2881 -76.6642 223° Southwest 410 472 34,000  Level Washington Center
12:21PM 39.2161 -76.7756 230° Southwest 410 472 34,000  Level Washington Center
12:22PM 39.1419 -76.8894 230° Southwest 410 472 34,000  Level Washington Center
12:23PM 39.0614 -77.0139 230° Southwest 410 472 34,000  Level Washington Center
12:24PM 38.9872 -77.1006 222° Southwest 410 472 34,000  Level Washington Center
12:25PM 38.9006 -77.1919 219° Southwest 400 460 34,000  Level Washington Center
12:26PM 38.8139 -77.2886 221° Southwest 411 473 34,000  Level Washington Center
12:27PM 38.7269 -77.3825 220° Southwest 411 473 34,000  Level Washington Center
12:28PM 38.6381 -77.4814 221° Southwest 416 479 34,000  Level Washington Center
12:29PM 38.5531 -77.5747 221° Southwest 410 472 34,000  Level Washington Center
12:30PM 38.4617 -77.6731 220° Southwest 408 470 34,000  Level Washington Center
12:31PM 38.3744 -77.7714 221° Southwest 421 484 34,000  Level Washington Center
12:32PM 38.2853 -77.8667 220° Southwest 426 490 34,000  Level Washington Center
12:33PM 38.1958 -77.9644 221° Southwest 426 490 34,000  Level Washington Center
12:34PM 38.1061 -78.0592 220° Southwest 426 490 34,000  Level Washington Center
12:35PM 38.0167 -78.1564 221° Southwest 426 490 34,000  Level Washington Center
12:36PM 37.9250 -78.2453 217° Southwest 426 490 34,000  Level Washington Center
12:37PM 37.8292 -78.3367 217° Southwest 426 490 34,000  Level Washington Center
12:38PM 37.7203 -78.4350 216° Southwest 441 507 34,000  Level Washington Center
12:39PM 37.6244 -78.5258 217° Southwest 441 507 34,000  Level Washington Center
12:40PM 37.5242 -78.6164 216° Southwest 441 507 34,000  Level Washington Center
12:41PM 37.4300 -78.7042 217° Southwest 441 507 34,000  Level Washington Center
12:42PM 37.3425 -78.7842 216° Southwest 441 507 34,000  Level Washington Center
12:43PM 37.2461 -78.8689 215° Southwest 441 507 34,000  Level Washington Center
12:44PM 37.1497 -78.9586 217° Southwest 441 507 34,000  Level Washington Center
12:45PM 37.0533 -79.0506 217° Southwest 441 507 34,000  Level Washington Center
12:46PM 36.9589 -79.1400 217° Southwest 441 507 34,000  Level Washington Center
12:47PM 36.8558 -79.2364 217° Southwest 435 501 34,000  Level Washington Center
12:48PM 36.7614 -79.3228 216° Southwest 435 501 34,000  Level Washington Center
12:49PM 36.6669 -79.4114 217° Southwest 430 495 34,000  Level Washington Center
12:50PM 36.5744 -79.4975 217° Southwest 430 495 34,000  Level Washington Center
12:51PM 36.4883 -79.5758 216° Southwest 424 488 34,000  Level Washington Center
12:52PM 36.4153 -79.6400 215° Southwest 428 493 34,000  Level Atlanta Center
12:53PM 36.3206 -79.7278 217° Southwest 423 487 34,000  Level Atlanta Center
12:54PM 36.2275 -79.8125 216° Southwest 423 487 34,000  Level Atlanta Center
12:55PM 36.1222 -79.9053 215° Southwest 423 487 34,000  Level Atlanta Center
12:56PM 36.0203 -79.9800 211° Southwest 423 487 34,000  Level Atlanta Center
12:57PM 35.9092 -80.0214 197° South 418 481 34,000  Level Atlanta Center
12:58PM 35.7956 -80.0550 193° South 423 487 34,000  Level Atlanta Center
12:59PM 35.6922 -80.0908 196° South 423 487 34,000  Level Atlanta Center
01:00PM 35.5767 -80.1297 195° South 434 499 34,000  Level Atlanta Center
01:01PM 35.4611 -80.1683 195° South 434 499 34,000  Level Atlanta Center
01:02PM 35.3331 -80.2072 194° South 434 499 34,000  Level Atlanta Center
01:03PM 35.2153 -80.2458 195° South 434 499 34,000  Level Atlanta Center
01:05PM 34.9764 -80.3236 195° South 432 497 34,000  Level Jacksonville Center
01:06PM 34.8831 -80.3544 195° South 432 497 34,000  Level Jacksonville Center
01:07PM 34.7400 -80.3989 194° South 441 507 34,000  Level Jacksonville Center
01:08PM 34.6219 -80.4353 194° South 435 501 34,000  Level Jacksonville Center
01:09PM 34.5017 -80.4739 195° South 435 501 34,000  Level Jacksonville Center
01:10PM 34.3836 -80.5125 195° South 435 501 34,000  Level Jacksonville Center
01:11PM 34.2611 -80.5483 194° South 440 506 34,000  Level Jacksonville Center
01:12PM 34.1408 -80.5867 195° South 445 512 34,000  Level Jacksonville Center
01:13PM 34.0206 -80.6250 195° South 450 518 34,000  Level Jacksonville Center
01:14PM 33.8939 -80.6633 194° South 450 518 34,000  Level Jacksonville Center
01:15PM 33.7736 -80.7014 195° South 450 518 34,000  Level Jacksonville Center
01:16PM 33.6511 -80.7394 194° South 450 518 34,000  Level Jacksonville Center
01:17PM 33.5286 -80.7797 195° South 455 524 34,000  Level Jacksonville Center
01:18PM 33.4042 -80.8225 196° South 455 524 34,000  Level Jacksonville Center
01:19PM 33.2794 -80.8578 193° South 455 524 34,000  Level Jacksonville Center
01:20PM 33.1569 -80.8978 195° South 455 524 34,000  Level Jacksonville Center
01:21PM 33.0344 -80.9350 194° South 455 524 34,000  Level Jacksonville Center
01:22PM 32.9097 -80.9725 194° South 455 524 34,000  Level Jacksonville Center
01:23PM 32.7850 -81.0097 194° South 455 524 34,000  Level Jacksonville Center
01:24PM 32.6603 -81.0494 195° South 455 524 34,000  Level Jacksonville Center
01:25PM 32.5378 -81.0864 194° South 455 524 34,000  Level Jacksonville Center
01:26PM 32.4256 -81.1206 194° South 455 524 34,000  Level Jacksonville Center
01:27PM 32.2819 -81.1600 193° South 469 540 34,000  Level Jacksonville Center
01:28PM 32.1572 -81.1994 195° South 469 540 34,000  Level Jacksonville Center
01:29PM 32.0278 -81.1992 180° South 461 531 34,000  Level Jacksonville Center
01:30PM 31.8964 -81.1944 178° South 460 529 34,000  Level Jacksonville Center
01:31PM 31.7753 -81.1917 179° South 460 529 34,000  Level Jacksonville Center
01:32PM 31.6603 -81.1864 178° South 460 529 34,000  Level Jacksonville Center
01:33PM 31.5203 -81.1817 178° South 460 529 34,000  Level Jacksonville Center
01:34PM 31.4053 -81.1764 178° South 460 529 34,000 -60 Level Jacksonville Center
01:35PM 31.2675 -81.1792 181° South 460 529 33,900  Descending Jacksonville Center
01:36PM 31.1450 -81.2153 194° South 454 522 34,000  Climbing Jacksonville Center
01:37PM 31.0264 -81.2611 198° South 452 520 34,000  Level Jacksonville Center
01:38PM 30.9033 -81.2631 181° South 447 514 34,000  Level Jacksonville Center
01:39PM 30.7794 -81.2119 160° South 443 510 34,000 -300 Level Jacksonville Center
01:40PM 30.6578 -81.1658 162° South 449 517 33,500 -720 Descending Jacksonville Center
01:41PM 30.5469 -81.1511 173° South 449 517 32,600 -1,200 Descending Jacksonville Center
01:42PM 30.4194 -81.1486 179° South 449 517 31,200 -1,200 Descending Jacksonville Center
01:43PM 30.2900 -81.1461 179° South 454 522 30,200 -1,020 Descending Jacksonville Center
01:44PM 30.1667 -81.1411 178° South 460 529 29,200 -1,020 Descending Jacksonville Center
01:45PM 30.0417 -81.1411 180° South 460 529 28,200 -1,320 Descending Jacksonville Center
01:46PM 29.9183 -81.1383 179° South 460 529 26,600 -1,560 Descending Jacksonville Center
01:47PM 29.7992 -81.1358 179° South 448 516 25,100 -1,800 Descending Jacksonville Center
01:48PM 29.6844 -81.1306 178° South 427 491 23,000 -2,100 Descending Jacksonville Center
01:49PM 29.5739 -81.1303 180° South 412 474 20,900 -2,100 Descending Jacksonville Center
01:50PM 29.4567 -81.1228 177° South 393 452 18,800 -2,100 Descending Jacksonville Center
01:51PM 29.3525 -81.1225 180° South 378 435 16,800 -2,040 Descending Jacksonville Center
01:52PM 29.2542 -81.1147 176° South 361 415 14,800 -2,100 Descending Jacksonville Center
01:53PM 29.1539 -81.1069 176° South 361 415 12,600 -1,500 Descending Jacksonville Center
01:54PM 29.0619 -81.0992 176° South 344 396 11,900 -540 Descending Jacksonville Center
01:55PM 28.9783 -81.0911 175° South 312 359 11,600 -960 Descending Jacksonville Center
01:56PM 28.8967 -81.0783 172° South 307 353 10,000 -1,560 Descending Jacksonville Center
01:57PM 28.8194 -81.0797 181° South 299 344 8,500 -1,140 Descending Jacksonville Center
01:58PM 28.7703 -81.1375 226° Southwest 253 291 7,800 -1,080 Descending Jacksonville Center
01:59PM 28.7250 -81.1903 226° Southwest 243 280 6,400 -1,380 Descending Jacksonville Center
02:00PM 28.6819 -81.2383 224° Southwest 238 274 5,100 -1,440 Descending Jacksonville Center
02:01PM 28.6406 -81.2817 223° Southwest 220 253 3,600 -1,260 Descending Jacksonville Center
02:02PM 28.5864 -81.2850 183° South 190 219 2,600 -1,020 Descending Jacksonville Center